Lafayette, Alabama
Current Conditions -  °F | °C
As of 3:15 AM on Monday 22 Dec 2014 (Local Time) from KAUO Reporting Station
Overcast Overcast  
Wind Chill: 42°   Ceiling: 300
Heat Index: 46°   Visibility: 9mi
Dew Point: 43°   Wind: 9mph
Humidity: 87%   Direction: 90°E
Pressure: 30.02"   Gusts: NA
Location:  32.9°N, 85.4°W
Report Text: KAUO 220915Z AUTO 09008KT 9SM OVC003 08/06 A3002 RMK AO1
Loading
Personal Weather Stations






























Interactive Weather Map New forecast layout! Learn more

10-Day Weather Forecast

Advertisements
Track Severe Weather on mobile